Yamato — JD2252 — position and weather

sailwx.info

Track history (hours):
 
Tides and Currents Weather Stations Pressure Air Temp Water Temp Dewpoint Dewpoint Depression Visibility Wind Speed Wind Dir Waves Ship Positions

Yamato

Last reported at 2017-Jun-23 23:30 UTC. Time now 2017-Jun-23 23:54 UTC.
Position N 35°27' E 139°40'.

Length 43 m; draft 3.6 m.

Type: Tug. MMSI: 431101141.

Date/timePositionNaut miles runAvg speedWind from/ knotsBaromVisibWave heightAir tempDewpointWater temp
2017-Jun-23 23:30N 35°27' E 139°40'0 0.0
2017-Jun-23 23:00N 35°27' E 139°40'0 0.0
2017-Jun-23 22:30N 35°27' E 139°40'0 0.0
2017-Jun-23 22:00N 35°27' E 139°40'0 0.0
2017-Jun-23 21:30N 35°27' E 139°40'0 0.0
2017-Jun-23 21:00N 35°27' E 139°40'0 0.0
2017-Jun-23 20:30N 35°27' E 139°40'0 0.0
2017-Jun-23 20:00N 35°27' E 139°40'0 0.0
2017-Jun-23 19:30N 35°27' E 139°40'0 0.0
2017-Jun-23 19:00N 35°27' E 139°40'0 0.0
2017-Jun-23 18:30N 35°27' E 139°40'0 0.0
2017-Jun-23 18:00N 35°27' E 139°40'0 0.0
2017-Jun-23 17:30N 35°27' E 139°40'0 0.0
2017-Jun-23 17:00N 35°27' E 139°40'0 0.0
2017-Jun-23 16:31N 35°27' E 139°40'0 0.0
2017-Jun-23 16:00N 35°27' E 139°40'0 0.0
2017-Jun-23 15:30N 35°27' E 139°40'0 0.0
2017-Jun-23 15:00N 35°27' E 139°40'0 0.0
2017-Jun-23 14:30N 35°27' E 139°40'0 0.0
2017-Jun-23 13:30N 35°27' E 139°40'0 0.0
2017-Jun-23 13:01N 35°27' E 139°40'0 0.0
2017-Jun-23 12:30N 35°27' E 139°40'0 0.0
2017-Jun-23 12:00N 35°27' E 139°40'0 0.0
2017-Jun-23 11:31N 35°27' E 139°40'0 0.0
2017-Jun-23 11:00N 35°27' E 139°40'0 0.0
2017-Jun-23 10:30N 35°27' E 139°40'0 0.0
2017-Jun-23 10:01N 35°27' E 139°40'0 0.0
2017-Jun-23 09:30N 35°27' E 139°40'0 0.0
2017-Jun-23 09:00N 35°27' E 139°40'0 0.0
2017-Jun-23 08:30N 35°27' E 139°40'0 0.0
2017-Jun-23 08:00N 35°27' E 139°40'0 0.0
2017-Jun-23 07:30N 35°27' E 139°40'0 0.0
2017-Jun-23 07:00N 35°27' E 139°40'0 0.0
2017-Jun-23 06:30N 35°27' E 139°40'0 0.0
2017-Jun-23 06:00N 35°27' E 139°40'0 0.0
2017-Jun-23 05:30N 35°27' E 139°40'0 0.0
2017-Jun-23 05:00N 35°27' E 139°40'0 0.0
2017-Jun-23 04:30N 35°27' E 139°40'0 0.0
2017-Jun-23 04:00N 35°27' E 139°40'0 0.0
2017-Jun-23 03:30N 35°27' E 139°40'0 0.0
2017-Jun-23 03:00N 35°27' E 139°40'0 0.0
2017-Jun-23 02:30N 35°27' E 139°40'0 0.0
2017-Jun-23 02:00N 35°27' E 139°40'0 0.0
2017-Jun-23 01:30N 35°27' E 139°40'0 0.0
2017-Jun-23 01:00N 35°27' E 139°40'0 0.0
2017-Jun-23 00:30N 35°27' E 139°40'0 0.0
2017-Jun-23 00:00N 35°27' E 139°40'0 1.0
2017-Jun-22 23:30N 35°27' E 139°39'3 6.8
2017-Jun-22 23:00N 35°29' E 139°43'0 0.1
2017-Jun-22 22:30N 35°29' E 139°43'2 3.7
2017-Jun-22 22:00N 35°28' E 139°43'2 3.8
2017-Jun-22 21:30N 35°27' E 139°45'2 3.1
2017-Jun-22 21:00N 35°27' E 139°47'2 4.3
2017-Jun-22 20:30N 35°28' E 139°44'0 0.8
2017-Jun-22 20:00N 35°28' E 139°44'1 2.3
2017-Jun-22 19:30N 35°27' E 139°42'2 3.5
2017-Jun-22 19:00N 35°26' E 139°41'0 0.0
2017-Jun-22 18:30N 35°26' E 139°41'1 1.6
2017-Jun-22 18:00N 35°26' E 139°42'0 0.0
2017-Jun-22 17:30N 35°26' E 139°42'0 0.0
2017-Jun-22 17:00N 35°26' E 139°42'0 0.0
2017-Jun-22 16:30N 35°26' E 139°42'0 0.0
2017-Jun-22 16:00N 35°26' E 139°42'3 5.0
2017-Jun-22 15:31N 35°23' E 139°41'1 1.5
2017-Jun-22 15:01N 35°24' E 139°41'1 3.0
2017-Jun-22 14:30N 35°24' E 139°43'2 1.8
2017-Jun-22 13:30N 35°26' E 139°42'0 0.0
2017-Jun-22 13:00N 35°26' E 139°42'0 0.0
2017-Jun-22 12:30N 35°26' E 139°42'1 1.6
2017-Jun-22 12:00N 35°26' E 139°41'1 1.9
2017-Jun-22 11:30N 35°26' E 139°42'1 2.4
2017-Jun-22 11:01N 35°25' E 139°43'1 2.1
2017-Jun-22 10:30N 35°26' E 139°42'0 0.0
2017-Jun-22 10:00N 35°26' E 139°42'0 0.0
2017-Jun-22 09:31N 35°26' E 139°42'1 1.6
2017-Jun-22 09:01N 35°25' E 139°41'0 0.0
2017-Jun-22 08:31N 35°25' E 139°41'1 2.8
2017-Jun-22 08:01N 35°27' E 139°41'1 2.7
2017-Jun-22 07:31N 35°27' E 139°40'0 0.0
2017-Jun-22 07:00N 35°27' E 139°40'0 0.0
2017-Jun-22 06:31N 35°27' E 139°40'0 0.0
2017-Jun-22 06:01N 35°27' E 139°40'0 0.0
2017-Jun-22 05:31N 35°27' E 139°40'0 0.0
2017-Jun-22 05:00N 35°27' E 139°40'0 0.0
2017-Jun-22 04:31N 35°27' E 139°40'0 0.0
2017-Jun-22 04:01N 35°27' E 139°40'0 0.0
2017-Jun-22 03:30N 35°27' E 139°40'0 0.0
2017-Jun-22 03:01N 35°27' E 139°40'0 0.0
2017-Jun-22 02:30N 35°27' E 139°40'0 0.0
2017-Jun-22 02:00N 35°27' E 139°40'0 0.0
2017-Jun-22 01:30N 35°27' E 139°40'0 0.0
2017-Jun-22 01:00N 35°27' E 139°40'0 0.0
2017-Jun-22 00:30N 35°27' E 139°40'0 0.0
2017-Jun-22 00:00N 35°27' E 139°40'0 0.0
2017-Jun-21 23:30N 35°27' E 139°40'0 0.0
2017-Jun-21 23:00N 35°27' E 139°40'0 0.0
2017-Jun-21 22:30N 35°27' E 139°40'0 0.0
2017-Jun-21 22:00N 35°27' E 139°40'0 0.0
2017-Jun-21 21:30N 35°27' E 139°40'0 0.0
2017-Jun-21 21:00N 35°27' E 139°40'0 0.0
2017-Jun-21 20:30N 35°27' E 139°40'0 0.0
2017-Jun-21 20:00N 35°27' E 139°40'0 0.0
2017-Jun-21 19:31N 35°27' E 139°40'0 0.0
2017-Jun-21 19:00N 35°27' E 139°40'0 0.0
2017-Jun-21 18:30N 35°27' E 139°40'0 0.0
2017-Jun-21 18:00N 35°27' E 139°40'0 0.0
2017-Jun-21 17:30N 35°27' E 139°40'0 0.0
2017-Jun-21 17:00N 35°27' E 139°40'0 0.0
2017-Jun-21 16:31N 35°27' E 139°40'0 0.0
2017-Jun-21 16:00N 35°27' E 139°40'0 0.0
2017-Jun-21 15:30N 35°27' E 139°40'0 0.0
2017-Jun-21 15:00N 35°27' E 139°40'0 0.0
2017-Jun-21 14:30N 35°27' E 139°40'0 0.0
2017-Jun-21 13:31N 35°27' E 139°40'0 0.0
2017-Jun-21 13:00N 35°27' E 139°40'0 0.0
2017-Jun-21 12:30N 35°27' E 139°40'0 0.0
2017-Jun-21 12:00N 35°27' E 139°40'0 0.0
2017-Jun-21 11:30N 35°27' E 139°40'0 0.0
2017-Jun-21 11:00N 35°27' E 139°40'0 0.0
2017-Jun-21 10:31N 35°27' E 139°40'0 0.0
2017-Jun-21 10:00N 35°27' E 139°40'0 0.0
2017-Jun-21 09:30N 35°27' E 139°40'0 0.0
2017-Jun-21 09:00N 35°27' E 139°40'0 0.0
2017-Jun-21 08:30N 35°27' E 139°40'2 3.1
2017-Jun-21 08:01N 35°27' E 139°41'3 5.1
2017-Jun-21 07:30N 35°24' E 139°41'1 1.3
2017-Jun-21 07:00N 35°24' E 139°41'0 0.0
2017-Jun-21 06:29N 35°24' E 139°41'0 0.8
2017-Jun-21 06:00N 35°24' E 139°40'2 3.3
2017-Jun-21 05:30N 35°25' E 139°42'2 4.9
2017-Jun-21 05:00N 35°27' E 139°41'0 0.0
2017-Jun-21 04:30N 35°27' E 139°41'0 0.9
2017-Jun-21 04:01N 35°28' E 139°40'0 0.0
2017-Jun-21 03:30N 35°28' E 139°40'1 2.5
2017-Jun-21 03:00N 35°26' E 139°41'0 0.0
2017-Jun-21 02:30N 35°26' E 139°41'1 2.8
2017-Jun-21 02:01N 35°27' E 139°39'0 0.0
2017-Jun-21 01:30N 35°27' E 139°39'0 0.0
2017-Jun-21 01:00N 35°27' E 139°39'0 0.0
2017-Jun-21 00:30N 35°27' E 139°39'0 0.0
2017-Jun-21 00:00N 35°27' E 139°39'0 0.0
2017-Jun-20 23:30N 35°27' E 139°39'0 0.0
2017-Jun-20 23:00N 35°27' E 139°39'0 0.0
2017-Jun-20 22:31N 35°27' E 139°39'1 2.6
2017-Jun-20 22:00N 35°27' E 139°41'1 2.7
2017-Jun-20 21:31N 35°26' E 139°42'0 0.5
2017-Jun-20 21:00N 35°26' E 139°42'2 3.9
2017-Jun-20 20:30N 35°27' E 139°40'0 0.0
2017-Jun-20 20:00N 35°27' E 139°40'0 0.0
2017-Jun-20 19:31N 35°27' E 139°40'0 0.0
2017-Jun-20 19:00N 35°27' E 139°40'0 0.0
2017-Jun-20 18:30N 35°27' E 139°40'0 0.0
2017-Jun-20 18:00N 35°27' E 139°40'0 0.0
2017-Jun-20 17:30N 35°27' E 139°40'0 0.0
2017-Jun-20 17:01N 35°27' E 139°40'0 0.0
2017-Jun-20 16:30N 35°27' E 139°40'0 0.0
2017-Jun-20 16:00N 35°27' E 139°40'0 0.0
2017-Jun-20 15:30N 35°27' E 139°40'0 0.0
2017-Jun-20 15:00N 35°27' E 139°40'0 0.0
2017-Jun-20 14:31N 35°27' E 139°40'0 0.0
2017-Jun-20 13:30N 35°27' E 139°40'0 0.0
2017-Jun-20 13:00N 35°27' E 139°40'0 0.0
2017-Jun-20 12:30N 35°27' E 139°40'0 0.0
2017-Jun-20 12:01N 35°27' E 139°40'0 0.0
2017-Jun-20 11:30N 35°27' E 139°40'0 0.0
2017-Jun-20 11:00N 35°27' E 139°40'0 0.0
2017-Jun-20 10:30N 35°27' E 139°40'0 0.0
2017-Jun-20 10:00N 35°27' E 139°40'0 0.0
2017-Jun-20 09:30N 35°27' E 139°40'0 0.0
2017-Jun-20 09:00N 35°27' E 139°40'0 0.0
2017-Jun-20 08:30N 35°27' E 139°40'0 0.0
2017-Jun-20 08:00N 35°27' E 139°40'0 0.0
2017-Jun-20 07:30N 35°27' E 139°40'0 0.0
2017-Jun-20 07:00N 35°27' E 139°40'0 0.0
2017-Jun-20 06:30N 35°27' E 139°40'0 0.0
2017-Jun-20 06:00N 35°27' E 139°40'0 0.0
2017-Jun-20 05:31N 35°27' E 139°40'0 0.0
2017-Jun-20 05:00N 35°27' E 139°40'0 0.0
2017-Jun-20 04:30N 35°27' E 139°40'0 0.0
2017-Jun-20 04:00N 35°27' E 139°40'0 0.0
2017-Jun-20 03:30N 35°27' E 139°40'0 0.0
2017-Jun-20 03:01N 35°27' E 139°40'0 0.0
2017-Jun-20 02:30N 35°27' E 139°40'0 0.0
2017-Jun-20 02:00N 35°27' E 139°40'0 0.0
2017-Jun-20 01:30N 35°27' E 139°40'0 0.0
2017-Jun-20 01:00N 35°27' E 139°40'0 0.0
2017-Jun-20 00:30N 35°27' E 139°40'0 0.0
2017-Jun-20 00:00N 35°27' E 139°40'3 5.6
2017-Jun-19 23:30N 35°27' E 139°43'5 9.2
2017-Jun-19 23:00N 35°30' E 139°48'1 2.6
2017-Jun-19 22:30N 35°31' E 139°46'5 9.1
2017-Jun-19 22:01N 35°29' E 139°41'2 4.3
2017-Jun-19 21:30N 35°27' E 139°40'0 0.0
2017-Jun-19 21:00N 35°27' E 139°40'0 0.0
2017-Jun-19 20:30N 35°27' E 139°40'0 0.0
2017-Jun-19 20:00N 35°27' E 139°40'0 0.0
2017-Jun-19 19:30N 35°27' E 139°40'0 0.0
2017-Jun-19 19:00N 35°27' E 139°40'0 0.0
2017-Jun-19 18:30N 35°27' E 139°40'0 0.0
2017-Jun-19 18:01N 35°27' E 139°40'0 0.0
2017-Jun-19 17:30N 35°27' E 139°40'0 0.0
2017-Jun-19 17:00N 35°27' E 139°40'0 0.0
2017-Jun-19 16:30N 35°27' E 139°40'0 0.0
2017-Jun-19 16:01N 35°27' E 139°40'0 0.0
2017-Jun-19 15:31N 35°27' E 139°40'0 0.0
2017-Jun-19 15:00N 35°27' E 139°40'0 0.0
2017-Jun-19 14:00N 35°27' E 139°40'0 0.0
2017-Jun-19 13:30N 35°27' E 139°40'0 0.0
2017-Jun-19 13:01N 35°27' E 139°40'0 0.0
2017-Jun-19 12:30N 35°27' E 139°40'0 0.0
2017-Jun-19 12:00N 35°27' E 139°40'0 0.0
2017-Jun-19 11:31N 35°27' E 139°40'0 0.0
2017-Jun-19 11:00N 35°27' E 139°40'0 0.0
2017-Jun-19 10:30N 35°27' E 139°40'0 0.0
2017-Jun-19 10:00N 35°27' E 139°40'0 0.0
2017-Jun-19 09:30N 35°27' E 139°40'0 0.0
2017-Jun-19 09:01N 35°27' E 139°40'0 0.0
2017-Jun-19 08:30N 35°27' E 139°40'0 0.0
2017-Jun-19 08:01N 35°27' E 139°40'0 0.0
2017-Jun-19 07:30N 35°27' E 139°40'0 0.0
2017-Jun-19 07:00N 35°27' E 139°40'1 2.8
2017-Jun-19 06:30N 35°28' E 139°41'1 2.9
2017-Jun-19 06:01N 35°28' E 139°42'0 0.1
2017-Jun-19 05:30N 35°28' E 139°42'0 0.0
2017-Jun-19 05:00N 35°28' E 139°42'0 0.0
2017-Jun-19 04:30N 35°28' E 139°42'0 0.1
2017-Jun-19 04:00N 35°28' E 139°42'0 0.0
2017-Jun-19 03:30N 35°28' E 139°42'0 0.0
2017-Jun-19 03:00N 35°28' E 139°42'0 0.0
2017-Jun-19 02:31N 35°28' E 139°42'0 0.0
2017-Jun-19 02:00N 35°28' E 139°42'0 0.0
2017-Jun-19 01:30N 35°28' E 139°42'0 0.0
2017-Jun-19 01:00N 35°28' E 139°42'0 0.0
2017-Jun-19 00:30N 35°28' E 139°42'0 0.0
2017-Jun-19 00:01N 35°28' E 139°42'0 0.0
2017-Jun-18 23:30N 35°28' E 139°42'0 0.0
2017-Jun-18 23:00N 35°28' E 139°42'0 0.0
2017-Jun-18 22:30N 35°28' E 139°42'0 0.0
2017-Jun-18 22:01N 35°28' E 139°42'2 4.8
2017-Jun-18 21:30N 35°30' E 139°43'0 1.0
2017-Jun-18 21:00N 35°30' E 139°44'3 6.1
2017-Jun-18 20:30N 35°28' E 139°41'2 3.3
2017-Jun-18 20:00N 35°27' E 139°40'0 0.0
2017-Jun-18 19:30N 35°27' E 139°40'0 0.0
2017-Jun-18 19:00N 35°27' E 139°40'0 0.0
2017-Jun-18 18:30N 35°27' E 139°40'0 0.0
2017-Jun-18 18:01N 35°27' E 139°40'0 0.0
2017-Jun-18 17:30N 35°27' E 139°40'0 0.0
2017-Jun-18 17:00N 35°27' E 139°40'0 0.0
2017-Jun-18 16:30N 35°27' E 139°40'0 0.0
2017-Jun-18 16:00N 35°27' E 139°40'0 0.0
2017-Jun-18 15:30N 35°27' E 139°40'0 0.0
2017-Jun-18 15:01N 35°27' E 139°40'0 0.0
2017-Jun-18 14:00N 35°27' E 139°40'0 0.0
2017-Jun-18 13:30N 35°27' E 139°40'0 0.0
2017-Jun-18 13:00N 35°27' E 139°40'0 0.0
2017-Jun-18 12:30N 35°27' E 139°40'0 0.0
2017-Jun-18 12:00N 35°27' E 139°40'0 0.0
2017-Jun-18 11:30N 35°27' E 139°40'0 0.0
2017-Jun-18 11:00N 35°27' E 139°40'0 0.0
2017-Jun-18 10:30N 35°27' E 139°40'0 0.0
2017-Jun-18 10:00N 35°27' E 139°40'0 0.0
2017-Jun-18 09:30N 35°27' E 139°40'0 0.0
2017-Jun-18 09:00N 35°27' E 139°40'0 0.0
2017-Jun-18 08:30N 35°27' E 139°40'0 0.0
2017-Jun-18 08:00N 35°27' E 139°40'0 0.0
2017-Jun-18 07:30N 35°27' E 139°40'0 0.0
2017-Jun-18 07:00N 35°27' E 139°40'0 0.0
2017-Jun-18 06:30N 35°27' E 139°40'0 0.0
2017-Jun-18 06:00N 35°27' E 139°40'0 0.0
2017-Jun-18 05:31N 35°27' E 139°40'0 0.0
2017-Jun-18 05:00N 35°27' E 139°40'0 0.4
2017-Jun-18 04:30N 35°27' E 139°39'1 2.6
2017-Jun-18 04:01N 35°28' E 139°40'510.3
2017-Jun-18 03:30N 35°31' E 139°46'0 0.2
2017-Jun-18 03:01N 35°31' E 139°46'4 7.6
2017-Jun-18 02:30N 35°29' E 139°42'2 3.5
2017-Jun-18 02:01N 35°28' E 139°44'3 6.8
2017-Jun-18 01:31N 35°27' E 139°40'0 0.4
2017-Jun-18 01:00N 35°27' E 139°40'0 0.0
2017-Jun-18 00:30N 35°27' E 139°40'0 0.0
2017-Jun-18 00:00N 35°27' E 139°40'0 0.0
2017-Jun-17 23:30N 35°27' E 139°40'0 0.0
2017-Jun-17 23:00N 35°27' E 139°40'0 0.0
2017-Jun-17 22:30N 35°27' E 139°40'0 0.0
2017-Jun-17 22:00N 35°27' E 139°40'0 0.0
2017-Jun-17 21:30N 35°27' E 139°40'0 0.0
2017-Jun-17 21:00N 35°27' E 139°40'0 0.0
2017-Jun-17 20:30N 35°27' E 139°40'0 0.0
2017-Jun-17 20:00N 35°27' E 139°40'0 0.0
2017-Jun-17 19:30N 35°27' E 139°40'0 0.0
2017-Jun-17 19:00N 35°27' E 139°40'0 0.0
2017-Jun-17 18:31N 35°27' E 139°40'0 0.0
2017-Jun-17 18:00N 35°27' E 139°40'0 0.0
2017-Jun-17 17:30N 35°27' E 139°40'0 0.0
2017-Jun-17 17:00N 35°27' E 139°40'0 0.0
2017-Jun-17 16:30N 35°27' E 139°40'0 0.0
2017-Jun-17 16:00N 35°27' E 139°40'0 0.0
2017-Jun-17 15:31N 35°27' E 139°40'0 0.0
2017-Jun-17 15:00N 35°27' E 139°40'0 0.0
2017-Jun-17 14:30N 35°27' E 139°40'0 0.0
2017-Jun-17 13:30N 35°27' E 139°40'0 0.0
2017-Jun-17 13:00N 35°27' E 139°40'0 0.0
2017-Jun-17 12:30N 35°27' E 139°40'0 0.0
2017-Jun-17 12:00N 35°27' E 139°40'0 0.0
2017-Jun-17 11:30N 35°27' E 139°40'0 0.0
2017-Jun-17 11:00N 35°27' E 139°40'0 0.0
2017-Jun-17 10:31N 35°27' E 139°40'0 0.0
2017-Jun-17 10:01N 35°27' E 139°40'0 0.0
2017-Jun-17 09:30N 35°27' E 139°40'0 0.0
2017-Jun-17 09:00N 35°27' E 139°40'0 0.0
2017-Jun-17 08:30N 35°27' E 139°40'0 0.0
2017-Jun-17 08:00N 35°27' E 139°40'0 0.0
2017-Jun-17 07:31N 35°27' E 139°40'0 0.0
2017-Jun-17 07:00N 35°27' E 139°40'0 0.0
2017-Jun-17 06:30N 35°27' E 139°40'0 0.0
2017-Jun-17 06:00N 35°27' E 139°40'0 0.0
2017-Jun-17 05:30N 35°27' E 139°40'0 0.0
2017-Jun-17 05:00N 35°27' E 139°40'0 0.0
2017-Jun-17 04:30N 35°27' E 139°40'0 0.0
2017-Jun-17 04:00N 35°27' E 139°40'0 0.0
2017-Jun-17 03:30N 35°27' E 139°40'0 0.0
2017-Jun-17 03:00N 35°27' E 139°40'0 0.0
2017-Jun-17 02:30N 35°27' E 139°40'0 0.0
2017-Jun-17 02:01N 35°27' E 139°40'0 0.0
2017-Jun-17 01:30N 35°27' E 139°40'0 0.0
2017-Jun-17 01:00N 35°27' E 139°40'0 0.0
2017-Jun-17 00:30N 35°27' E 139°40'0 0.0
2017-Jun-17 00:00N 35°27' E 139°40'0 0.0
2017-Jun-16 23:30N 35°27' E 139°40'0 0.0
2017-Jun-16 23:00N 35°27' E 139°40'0 0.0
2017-Jun-16 22:31N 35°27' E 139°40'0 0.0
2017-Jun-16 22:01N 35°27' E 139°40'0 0.0
2017-Jun-16 21:31N 35°27' E 139°40'0 0.0
2017-Jun-16 21:00N 35°27' E 139°40'0 0.0
2017-Jun-16 20:30N 35°27' E 139°40'0 0.0
2017-Jun-16 20:01N 35°27' E 139°40'0 0.0
2017-Jun-16 19:30N 35°27' E 139°40'0 0.0
2017-Jun-16 19:00N 35°27' E 139°40'0 0.0
2017-Jun-16 18:30N 35°27' E 139°40'0 0.0
2017-Jun-16 18:00N 35°27' E 139°40'0 0.0
2017-Jun-16 17:30N 35°27' E 139°40'0 0.0
2017-Jun-16 17:00N 35°27' E 139°40'0 0.0
2017-Jun-16 16:30N 35°27' E 139°40'0 0.0
2017-Jun-16 16:00N 35°27' E 139°40'0 0.0
2017-Jun-16 15:31N 35°27' E 139°40'0 0.0
2017-Jun-16 15:00N 35°27' E 139°40'0 0.0
2017-Jun-16 14:30N 35°27' E 139°40'0 0.0
2017-Jun-16 13:30N 35°27' E 139°40'0 0.0
2017-Jun-16 13:00N 35°27' E 139°40'0 0.0
2017-Jun-16 12:30N 35°27' E 139°40'0 0.0
2017-Jun-16 12:00N 35°27' E 139°40'0 0.0
2017-Jun-16 11:30N 35°27' E 139°40'0 0.0
2017-Jun-16 11:00N 35°27' E 139°40'0 0.0
2017-Jun-16 10:30N 35°27' E 139°40'0 0.0
2017-Jun-16 10:00N 35°27' E 139°40'0 0.0
2017-Jun-16 09:30N 35°27' E 139°40'0 0.0
2017-Jun-16 09:00N 35°27' E 139°40'0 0.0
2017-Jun-16 08:30N 35°27' E 139°40'0 0.0
2017-Jun-16 08:00N 35°27' E 139°40'0 0.0
2017-Jun-16 07:30N 35°27' E 139°40'0 0.0
2017-Jun-16 07:00N 35°27' E 139°40'0 0.0
2017-Jun-16 06:30N 35°27' E 139°40'0 0.0
2017-Jun-16 06:00N 35°27' E 139°40'0 0.0
2017-Jun-16 05:30N 35°27' E 139°40'0 0.0
2017-Jun-16 05:01N 35°27' E 139°40'0 0.0
2017-Jun-16 04:30N 35°27' E 139°40'0 0.0
2017-Jun-16 04:00N 35°27' E 139°40'0 0.0
2017-Jun-16 03:30N 35°27' E 139°40'0 0.0
2017-Jun-16 03:00N 35°27' E 139°40'0 0.0
2017-Jun-16 02:30N 35°27' E 139°40'0 0.0
2017-Jun-16 02:01N 35°27' E 139°40'0 0.0
2017-Jun-16 01:30N 35°27' E 139°40'0 0.8
2017-Jun-16 01:00N 35°27' E 139°40'3 5.4
2017-Jun-16 00:30N 35°28' E 139°43'0 0.5
2017-Jun-16 00:00N 35°27' E 139°43'1 1.8
2017-Jun-15 23:31N 35°27' E 139°42'0 0.0
2017-Jun-15 23:01N 35°27' E 139°42'0 0.0
2017-Jun-15 22:30N 35°27' E 139°42'3 5.3
2017-Jun-15 22:00N 35°27' E 139°39'2 3.0
2017-Jun-15 21:30N 35°29' E 139°39'3 6.4
2017-Jun-15 21:00N 35°26' E 139°42'1 2.5
2017-Jun-15 20:30N 35°27' E 139°42'0 0.0
2017-Jun-15 20:00N 35°27' E 139°42'0 0.0
2017-Jun-15 19:30N 35°27' E 139°42'0 0.0
2017-Jun-15 19:00N 35°27' E 139°42'0 0.0
2017-Jun-15 18:30N 35°27' E 139°42'0 0.0
2017-Jun-15 18:00N 35°27' E 139°42'0 0.0
2017-Jun-15 17:30N 35°27' E 139°42'0 0.0
2017-Jun-15 17:01N 35°27' E 139°42'0 0.0
2017-Jun-15 16:31N 35°27' E 139°42'0 0.0
2017-Jun-15 16:00N 35°27' E 139°42'0 0.0
2017-Jun-15 15:30N 35°27' E 139°42'0 0.7
2017-Jun-15 15:00N 35°28' E 139°42'2 4.0
2017-Jun-15 14:30N 35°27' E 139°40'0 0.0
2017-Jun-15 13:30N 35°27' E 139°40'0 0.0
2017-Jun-15 13:00N 35°27' E 139°40'0 0.0
2017-Jun-15 12:30N 35°27' E 139°40'0 0.0
2017-Jun-15 12:00N 35°27' E 139°40'0 0.0
2017-Jun-15 11:31N 35°27' E 139°40'0 0.0
2017-Jun-15 11:00N 35°27' E 139°40'0 0.0
2017-Jun-15 10:30N 35°27' E 139°40'0 0.0
2017-Jun-15 10:00N 35°27' E 139°40'0 0.0
2017-Jun-15 09:30N 35°27' E 139°40'0 0.0
2017-Jun-15 09:01N 35°27' E 139°40'0 0.0
2017-Jun-15 08:31N 35°27' E 139°40'2 4.0
2017-Jun-15 08:01N 35°28' E 139°42'0 1.0
2017-Jun-15 07:30N 35°28' E 139°42'1 2.0
2017-Jun-15 07:00N 35°27' E 139°44'1 1.9
2017-Jun-15 06:31N 35°28' E 139°44'1 2.7
2017-Jun-15 06:01N 35°29' E 139°45'2 3.2
2017-Jun-15 05:30N 35°28' E 139°44'1 1.9
2017-Jun-15 05:00N 35°28' E 139°45'2 4.1
2017-Jun-15 04:31N 35°30' E 139°45'2 4.2
2017-Jun-15 04:00N 35°29' E 139°43'2 3.8
2017-Jun-15 03:30N 35°28' E 139°42'2 3.7
2017-Jun-15 03:01N 35°26' E 139°42'0 0.0
2017-Jun-15 02:31N 35°26' E 139°42'0 0.0
2017-Jun-15 02:01N 35°26' E 139°42'0 0.0
2017-Jun-15 01:30N 35°26' E 139°42'0 0.0
2017-Jun-15 01:01N 35°26' E 139°42'0 0.0
2017-Jun-15 00:31N 35°26' E 139°42'0 0.0
2017-Jun-15 00:00N 35°26' E 139°42'0 0.0
2017-Jun-14 23:30N 35°26' E 139°42'0 0.0
2017-Jun-14 23:00N 35°26' E 139°42'0 0.0
2017-Jun-14 22:30N 35°26' E 139°42'0 0.1
2017-Jun-14 22:00N 35°26' E 139°42'1 1.0
2017-Jun-14 21:30N 35°26' E 139°41'2 3.6
2017-Jun-14 21:00N 35°27' E 139°40'0 0.0
2017-Jun-14 20:31N 35°27' E 139°40'0 0.0
2017-Jun-14 20:00N 35°27' E 139°40'0 0.0
2017-Jun-14 19:30N 35°27' E 139°40'0 0.0
2017-Jun-14 19:00N 35°27' E 139°40'0 0.0
2017-Jun-14 18:31N 35°27' E 139°40'0 0.0
2017-Jun-14 18:00N 35°27' E 139°40'0 0.0
2017-Jun-14 17:31N 35°27' E 139°40'0 0.0
2017-Jun-14 17:00N 35°27' E 139°40'0 0.0
2017-Jun-14 16:30N 35°27' E 139°40'0 0.0
2017-Jun-14 16:00N 35°27' E 139°40'0 0.0
2017-Jun-14 15:30N 35°27' E 139°40'0 0.0
2017-Jun-14 15:00N 35°27' E 139°40'0 0.0
2017-Jun-14 14:00N 35°27' E 139°40'0 0.0
2017-Jun-14 13:30N 35°27' E 139°40'0 0.0
2017-Jun-14 13:00N 35°27' E 139°40'0 0.0
2017-Jun-14 12:30N 35°27' E 139°40'0 0.0
2017-Jun-14 12:00N 35°27' E 139°40'0 0.0
2017-Jun-14 11:30N 35°27' E 139°40'0 0.0
2017-Jun-14 11:00N 35°27' E 139°40'0 0.0
2017-Jun-14 10:30N 35°27' E 139°40'0 0.0
2017-Jun-14 10:01N 35°27' E 139°40'1 1.2
2017-Jun-14 09:31N 35°27' E 139°39'2 4.7
2017-Jun-14 09:01N 35°25' E 139°41'0 0.3
2017-Jun-14 08:30N 35°25' E 139°41'1 2.4
2017-Jun-14 08:00N 35°25' E 139°42'0 0.5
2017-Jun-14 07:30N 35°25' E 139°42'1 2.2
2017-Jun-14 07:00N 35°26' E 139°42'0 0.0
2017-Jun-14 06:30N 35°26' E 139°42'0 0.0
2017-Jun-14 06:00N 35°26' E 139°42'0 0.0
2017-Jun-14 05:30N 35°26' E 139°42'0 0.0
2017-Jun-14 05:01N 35°26' E 139°42'0 0.0
2017-Jun-14 04:30N 35°26' E 139°42'0 0.0
2017-Jun-14 04:00N 35°26' E 139°42'0 0.0
2017-Jun-14 03:31N 35°26' E 139°42'0 0.1
2017-Jun-14 03:01N 35°26' E 139°42'0 0.0
2017-Jun-14 02:30N 35°26' E 139°42'0 0.0
2017-Jun-14 02:00N 35°26' E 139°42'0 0.0
2017-Jun-14 01:30N 35°26' E 139°42'0 0.0
2017-Jun-14 01:00N 35°26' E 139°42'0 0.0
2017-Jun-14 00:30N 35°26' E 139°42'0 0.0
2017-Jun-14 00:00N 35°26' E 139°42'0 0.0
2017-Jun-13 23:31N 35°26' E 139°42'  
Track history (hours):
 
Tides and Currents Weather Stations Pressure Air Temp Water Temp Dewpoint Dewpoint Depression Visibility Wind Speed Wind Dir Waves Ship Positions

Yamato

Last reported at 2017-Jun-23 23:30 UTC. Time now 2017-Jun-23 23:54 UTC.
Position N 35°27' E 139°40'.

Length 43 m; draft 3.6 m.

Type: Tug. MMSI: 431101141.

Date/timePositionNaut miles runAvg speedWind from/ knotsBaromVisibWave heightAir tempDewpointWater temp
2017-Jun-23 23:30N 35°27' E 139°40'0 0.0
2017-Jun-23 23:00N 35°27' E 139°40'0 0.0
2017-Jun-23 22:30N 35°27' E 139°40'0 0.0
2017-Jun-23 22:00N 35°27' E 139°40'0 0.0
2017-Jun-23 21:30N 35°27' E 139°40'0 0.0
2017-Jun-23 21:00N 35°27' E 139°40'0 0.0
2017-Jun-23 20:30N 35°27' E 139°40'0 0.0
2017-Jun-23 20:00N 35°27' E 139°40'0 0.0
2017-Jun-23 19:30N 35°27' E 139°40'0 0.0
2017-Jun-23 19:00N 35°27' E 139°40'0 0.0
2017-Jun-23 18:30N 35°27' E 139°40'0 0.0
2017-Jun-23 18:00N 35°27' E 139°40'0 0.0
2017-Jun-23 17:30N 35°27' E 139°40'0 0.0
2017-Jun-23 17:00N 35°27' E 139°40'0 0.0
2017-Jun-23 16:31N 35°27' E 139°40'0 0.0
2017-Jun-23 16:00N 35°27' E 139°40'0 0.0
2017-Jun-23 15:30N 35°27' E 139°40'0 0.0
2017-Jun-23 15:00N 35°27' E 139°40'0 0.0
2017-Jun-23 14:30N 35°27' E 139°40'0 0.0
2017-Jun-23 13:30N 35°27' E 139°40'0 0.0
2017-Jun-23 13:01N 35°27' E 139°40'0 0.0
2017-Jun-23 12:30N 35°27' E 139°40'0 0.0
2017-Jun-23 12:00N 35°27' E 139°40'0 0.0
2017-Jun-23 11:31N 35°27' E 139°40'0 0.0
2017-Jun-23 11:00N 35°27' E 139°40'0 0.0
2017-Jun-23 10:30N 35°27' E 139°40'0 0.0
2017-Jun-23 10:01N 35°27' E 139°40'0 0.0
2017-Jun-23 09:30N 35°27' E 139°40'0 0.0
2017-Jun-23 09:00N 35°27' E 139°40'0 0.0
2017-Jun-23 08:30N 35°27' E 139°40'0 0.0
2017-Jun-23 08:00N 35°27' E 139°40'0 0.0
2017-Jun-23 07:30N 35°27' E 139°40'0 0.0
2017-Jun-23 07:00N 35°27' E 139°40'0 0.0
2017-Jun-23 06:30N 35°27' E 139°40'0 0.0
2017-Jun-23 06:00N 35°27' E 139°40'0 0.0
2017-Jun-23 05:30N 35°27' E 139°40'0 0.0
2017-Jun-23 05:00N 35°27' E 139°40'0 0.0
2017-Jun-23 04:30N 35°27' E 139°40'0 0.0
2017-Jun-23 04:00N 35°27' E 139°40'0 0.0
2017-Jun-23 03:30N 35°27' E 139°40'0 0.0
2017-Jun-23 03:00N 35°27' E 139°40'0 0.0
2017-Jun-23 02:30N 35°27' E 139°40'0 0.0
2017-Jun-23 02:00N 35°27' E 139°40'0 0.0
2017-Jun-23 01:30N 35°27' E 139°40'0 0.0
2017-Jun-23 01:00N 35°27' E 139°40'0 0.0
2017-Jun-23 00:30N 35°27' E 139°40'0 0.0
2017-Jun-23 00:00N 35°27' E 139°40'0 1.0
2017-Jun-22 23:30N 35°27' E 139°39'3 6.8
2017-Jun-22 23:00N 35°29' E 139°43'0 0.1
2017-Jun-22 22:30N 35°29' E 139°43'2 3.7
2017-Jun-22 22:00N 35°28' E 139°43'2 3.8
2017-Jun-22 21:30N 35°27' E 139°45'2 3.1
2017-Jun-22 21:00N 35°27' E 139°47'2 4.3
2017-Jun-22 20:30N 35°28' E 139°44'0 0.8
2017-Jun-22 20:00N 35°28' E 139°44'1 2.3
2017-Jun-22 19:30N 35°27' E 139°42'2 3.5
2017-Jun-22 19:00N 35°26' E 139°41'0 0.0
2017-Jun-22 18:30N 35°26' E 139°41'1 1.6
2017-Jun-22 18:00N 35°26' E 139°42'0 0.0
2017-Jun-22 17:30N 35°26' E 139°42'0 0.0
2017-Jun-22 17:00N 35°26' E 139°42'0 0.0
2017-Jun-22 16:30N 35°26' E 139°42'0 0.0
2017-Jun-22 16:00N 35°26' E 139°42'3 5.0
2017-Jun-22 15:31N 35°23' E 139°41'1 1.5
2017-Jun-22 15:01N 35°24' E 139°41'1 3.0
2017-Jun-22 14:30N 35°24' E 139°43'2 1.8
2017-Jun-22 13:30N 35°26' E 139°42'0 0.0
2017-Jun-22 13:00N 35°26' E 139°42'0 0.0
2017-Jun-22 12:30N 35°26' E 139°42'1 1.6
2017-Jun-22 12:00N 35°26' E 139°41'1 1.9
2017-Jun-22 11:30N 35°26' E 139°42'1 2.4
2017-Jun-22 11:01N 35°25' E 139°43'1 2.1
2017-Jun-22 10:30N 35°26' E 139°42'0 0.0
2017-Jun-22 10:00N 35°26' E 139°42'0 0.0
2017-Jun-22 09:31N 35°26' E 139°42'1 1.6
2017-Jun-22 09:01N 35°25' E 139°41'0 0.0
2017-Jun-22 08:31N 35°25' E 139°41'1 2.8
2017-Jun-22 08:01N 35°27' E 139°41'1 2.7
2017-Jun-22 07:31N 35°27' E 139°40'0 0.0
2017-Jun-22 07:00N 35°27' E 139°40'0 0.0
2017-Jun-22 06:31N 35°27' E 139°40'0 0.0
2017-Jun-22 06:01N 35°27' E 139°40'0 0.0
2017-Jun-22 05:31N 35°27' E 139°40'0 0.0
2017-Jun-22 05:00N 35°27' E 139°40'0 0.0
2017-Jun-22 04:31N 35°27' E 139°40'0 0.0
2017-Jun-22 04:01N 35°27' E 139°40'0 0.0
2017-Jun-22 03:30N 35°27' E 139°40'0 0.0
2017-Jun-22 03:01N 35°27' E 139°40'0 0.0
2017-Jun-22 02:30N 35°27' E 139°40'0 0.0
2017-Jun-22 02:00N 35°27' E 139°40'0 0.0
2017-Jun-22 01:30N 35°27' E 139°40'0 0.0
2017-Jun-22 01:00N 35°27' E 139°40'0 0.0
2017-Jun-22 00:30N 35°27' E 139°40'0 0.0
2017-Jun-22 00:00N 35°27' E 139°40'0 0.0
2017-Jun-21 23:30N 35°27' E 139°40'0 0.0
2017-Jun-21 23:00N 35°27' E 139°40'0 0.0
2017-Jun-21 22:30N 35°27' E 139°40'0 0.0
2017-Jun-21 22:00N 35°27' E 139°40'0 0.0
2017-Jun-21 21:30N 35°27' E 139°40'0 0.0
2017-Jun-21 21:00N 35°27' E 139°40'0 0.0
2017-Jun-21 20:30N 35°27' E 139°40'0 0.0
2017-Jun-21 20:00N 35°27' E 139°40'0 0.0
2017-Jun-21 19:31N 35°27' E 139°40'0 0.0
2017-Jun-21 19:00N 35°27' E 139°40'0 0.0
2017-Jun-21 18:30N 35°27' E 139°40'0 0.0
2017-Jun-21 18:00N 35°27' E 139°40'0 0.0
2017-Jun-21 17:30N 35°27' E 139°40'0 0.0
2017-Jun-21 17:00N 35°27' E 139°40'0 0.0
2017-Jun-21 16:31N 35°27' E 139°40'0 0.0
2017-Jun-21 16:00N 35°27' E 139°40'0 0.0
2017-Jun-21 15:30N 35°27' E 139°40'0 0.0
2017-Jun-21 15:00N 35°27' E 139°40'0 0.0
2017-Jun-21 14:30N 35°27' E 139°40'0 0.0
2017-Jun-21 13:31N 35°27' E 139°40'0 0.0
2017-Jun-21 13:00N 35°27' E 139°40'0 0.0
2017-Jun-21 12:30N 35°27' E 139°40'0 0.0
2017-Jun-21 12:00N 35°27' E 139°40'0 0.0
2017-Jun-21 11:30N 35°27' E 139°40'0 0.0
2017-Jun-21 11:00N 35°27' E 139°40'0 0.0
2017-Jun-21 10:31N 35°27' E 139°40'0 0.0
2017-Jun-21 10:00N 35°27' E 139°40'0 0.0
2017-Jun-21 09:30N 35°27' E 139°40'0 0.0
2017-Jun-21 09:00N 35°27' E 139°40'0 0.0
2017-Jun-21 08:30N 35°27' E 139°40'2 3.1
2017-Jun-21 08:01N 35°27' E 139°41'3 5.1
2017-Jun-21 07:30N 35°24' E 139°41'1 1.3
2017-Jun-21 07:00N 35°24' E 139°41'0 0.0
2017-Jun-21 06:29N 35°24' E 139°41'0 0.8
2017-Jun-21 06:00N 35°24' E 139°40'2 3.3
2017-Jun-21 05:30N 35°25' E 139°42'2 4.9
2017-Jun-21 05:00N 35°27' E 139°41'0 0.0
2017-Jun-21 04:30N 35°27' E 139°41'0 0.9
2017-Jun-21 04:01N 35°28' E 139°40'0 0.0
2017-Jun-21 03:30N 35°28' E 139°40'1 2.5
2017-Jun-21 03:00N 35°26' E 139°41'0 0.0
2017-Jun-21 02:30N 35°26' E 139°41'1 2.8
2017-Jun-21 02:01N 35°27' E 139°39'0 0.0
2017-Jun-21 01:30N 35°27' E 139°39'0 0.0
2017-Jun-21 01:00N 35°27' E 139°39'0 0.0
2017-Jun-21 00:30N 35°27' E 139°39'0 0.0
2017-Jun-21 00:00N 35°27' E 139°39'0 0.0
2017-Jun-20 23:30N 35°27' E 139°39'0 0.0
2017-Jun-20 23:00N 35°27' E 139°39'0 0.0
2017-Jun-20 22:31N 35°27' E 139°39'1 2.6
2017-Jun-20 22:00N 35°27' E 139°41'1 2.7
2017-Jun-20 21:31N 35°26' E 139°42'0 0.5
2017-Jun-20 21:00N 35°26' E 139°42'2 3.9
2017-Jun-20 20:30N 35°27' E 139°40'0 0.0
2017-Jun-20 20:00N 35°27' E 139°40'0 0.0
2017-Jun-20 19:31N 35°27' E 139°40'0 0.0
2017-Jun-20 19:00N 35°27' E 139°40'0 0.0
2017-Jun-20 18:30N 35°27' E 139°40'0 0.0
2017-Jun-20 18:00N 35°27' E 139°40'0 0.0
2017-Jun-20 17:30N 35°27' E 139°40'0 0.0
2017-Jun-20 17:01N 35°27' E 139°40'0 0.0
2017-Jun-20 16:30N 35°27' E 139°40'0 0.0
2017-Jun-20 16:00N 35°27' E 139°40'0 0.0
2017-Jun-20 15:30N 35°27' E 139°40'0 0.0
2017-Jun-20 15:00N 35°27' E 139°40'0 0.0
2017-Jun-20 14:31N 35°27' E 139°40'0 0.0
2017-Jun-20 13:30N 35°27' E 139°40'0 0.0
2017-Jun-20 13:00N 35°27' E 139°40'0 0.0
2017-Jun-20 12:30N 35°27' E 139°40'0 0.0
2017-Jun-20 12:01N 35°27' E 139°40'0 0.0
2017-Jun-20 11:30N 35°27' E 139°40'0 0.0
2017-Jun-20 11:00N 35°27' E 139°40'0 0.0
2017-Jun-20 10:30N 35°27' E 139°40'0 0.0
2017-Jun-20 10:00N 35°27' E 139°40'0 0.0
2017-Jun-20 09:30N 35°27' E 139°40'0 0.0
2017-Jun-20 09:00N 35°27' E 139°40'0 0.0
2017-Jun-20 08:30N 35°27' E 139°40'0 0.0
2017-Jun-20 08:00N 35°27' E 139°40'0 0.0
2017-Jun-20 07:30N 35°27' E 139°40'0 0.0
2017-Jun-20 07:00N 35°27' E 139°40'0 0.0
2017-Jun-20 06:30N 35°27' E 139°40'0 0.0
2017-Jun-20 06:00N 35°27' E 139°40'0 0.0
2017-Jun-20 05:31N 35°27' E 139°40'0 0.0
2017-Jun-20 05:00N 35°27' E 139°40'0 0.0
2017-Jun-20 04:30N 35°27' E 139°40'0 0.0
2017-Jun-20 04:00N 35°27' E 139°40'0 0.0
2017-Jun-20 03:30N 35°27' E 139°40'0 0.0
2017-Jun-20 03:01N 35°27' E 139°40'0 0.0
2017-Jun-20 02:30N 35°27' E 139°40'0 0.0
2017-Jun-20 02:00N 35°27' E 139°40'0 0.0
2017-Jun-20 01:30N 35°27' E 139°40'0 0.0
2017-Jun-20 01:00N 35°27' E 139°40'0 0.0
2017-Jun-20 00:30N 35°27' E 139°40'0 0.0
2017-Jun-20 00:00N 35°27' E 139°40'3 5.6
2017-Jun-19 23:30N 35°27' E 139°43'5 9.2
2017-Jun-19 23:00N 35°30' E 139°48'1 2.6
2017-Jun-19 22:30N 35°31' E 139°46'5 9.1
2017-Jun-19 22:01N 35°29' E 139°41'2 4.3
2017-Jun-19 21:30N 35°27' E 139°40'0 0.0
2017-Jun-19 21:00N 35°27' E 139°40'0 0.0
2017-Jun-19 20:30N 35°27' E 139°40'0 0.0
2017-Jun-19 20:00N 35°27' E 139°40'0 0.0
2017-Jun-19 19:30N 35°27' E 139°40'0 0.0
2017-Jun-19 19:00N 35°27' E 139°40'0 0.0
2017-Jun-19 18:30N 35°27' E 139°40'0 0.0
2017-Jun-19 18:01N 35°27' E 139°40'0 0.0
2017-Jun-19 17:30N 35°27' E 139°40'0 0.0
2017-Jun-19 17:00N 35°27' E 139°40'0 0.0
2017-Jun-19 16:30N 35°27' E 139°40'0 0.0
2017-Jun-19 16:01N 35°27' E 139°40'0 0.0
2017-Jun-19 15:31N 35°27' E 139°40'0 0.0
2017-Jun-19 15:00N 35°27' E 139°40'0 0.0
2017-Jun-19 14:00N 35°27' E 139°40'0 0.0
2017-Jun-19 13:30N 35°27' E 139°40'0 0.0
2017-Jun-19 13:01N 35°27' E 139°40'0 0.0
2017-Jun-19 12:30N 35°27' E 139°40'0 0.0
2017-Jun-19 12:00N 35°27' E 139°40'0 0.0
2017-Jun-19 11:31N 35°27' E 139°40'0 0.0
2017-Jun-19 11:00N 35°27' E 139°40'0 0.0
2017-Jun-19 10:30N 35°27' E 139°40'0 0.0
2017-Jun-19 10:00N 35°27' E 139°40'0 0.0
2017-Jun-19 09:30N 35°27' E 139°40'0 0.0
2017-Jun-19 09:01N 35°27' E 139°40'0 0.0
2017-Jun-19 08:30N 35°27' E 139°40'0 0.0
2017-Jun-19 08:01N 35°27' E 139°40'0 0.0
2017-Jun-19 07:30N 35°27' E 139°40'0 0.0
2017-Jun-19 07:00N 35°27' E 139°40'1 2.8
2017-Jun-19 06:30N 35°28' E 139°41'1 2.9
2017-Jun-19 06:01N 35°28' E 139°42'0 0.1
2017-Jun-19 05:30N 35°28' E 139°42'0 0.0
2017-Jun-19 05:00N 35°28' E 139°42'0 0.0
2017-Jun-19 04:30N 35°28' E 139°42'0 0.1
2017-Jun-19 04:00N 35°28' E 139°42'0 0.0
2017-Jun-19 03:30N 35°28' E 139°42'0 0.0
2017-Jun-19 03:00N 35°28' E 139°42'0 0.0
2017-Jun-19 02:31N 35°28' E 139°42'0 0.0
2017-Jun-19 02:00N 35°28' E 139°42'0 0.0
2017-Jun-19 01:30N 35°28' E 139°42'0 0.0
2017-Jun-19 01:00N 35°28' E 139°42'0 0.0
2017-Jun-19 00:30N 35°28' E 139°42'0 0.0
2017-Jun-19 00:01N 35°28' E 139°42'0 0.0
2017-Jun-18 23:30N 35°28' E 139°42'0 0.0
2017-Jun-18 23:00N 35°28' E 139°42'0 0.0
2017-Jun-18 22:30N 35°28' E 139°42'0 0.0
2017-Jun-18 22:01N 35°28' E 139°42'2 4.8
2017-Jun-18 21:30N 35°30' E 139°43'0 1.0
2017-Jun-18 21:00N 35°30' E 139°44'3 6.1
2017-Jun-18 20:30N 35°28' E 139°41'2 3.3
2017-Jun-18 20:00N 35°27' E 139°40'0 0.0
2017-Jun-18 19:30N 35°27' E 139°40'0 0.0
2017-Jun-18 19:00N 35°27' E 139°40'0 0.0
2017-Jun-18 18:30N 35°27' E 139°40'0 0.0
2017-Jun-18 18:01N 35°27' E 139°40'0 0.0
2017-Jun-18 17:30N 35°27' E 139°40'0 0.0
2017-Jun-18 17:00N 35°27' E 139°40'0 0.0
2017-Jun-18 16:30N 35°27' E 139°40'0 0.0
2017-Jun-18 16:00N 35°27' E 139°40'0 0.0
2017-Jun-18 15:30N 35°27' E 139°40'0 0.0
2017-Jun-18 15:01N 35°27' E 139°40'0 0.0
2017-Jun-18 14:00N 35°27' E 139°40'0 0.0
2017-Jun-18 13:30N 35°27' E 139°40'0 0.0
2017-Jun-18 13:00N 35°27' E 139°40'0 0.0
2017-Jun-18 12:30N 35°27' E 139°40'0 0.0
2017-Jun-18 12:00N 35°27' E 139°40'0 0.0
2017-Jun-18 11:30N 35°27' E 139°40'0 0.0
2017-Jun-18 11:00N 35°27' E 139°40'0 0.0
2017-Jun-18 10:30N 35°27' E 139°40'0 0.0
2017-Jun-18 10:00N 35°27' E 139°40'0 0.0
2017-Jun-18 09:30N 35°27' E 139°40'0 0.0
2017-Jun-18 09:00N 35°27' E 139°40'0 0.0
2017-Jun-18 08:30N 35°27' E 139°40'0 0.0
2017-Jun-18 08:00N 35°27' E 139°40'0 0.0
2017-Jun-18 07:30N 35°27' E 139°40'0 0.0
2017-Jun-18 07:00N 35°27' E 139°40'0 0.0
2017-Jun-18 06:30N 35°27' E 139°40'0 0.0
2017-Jun-18 06:00N 35°27' E 139°40'0 0.0
2017-Jun-18 05:31N 35°27' E 139°40'0 0.0
2017-Jun-18 05:00N 35°27' E 139°40'0 0.4
2017-Jun-18 04:30N 35°27' E 139°39'1 2.6
2017-Jun-18 04:01N 35°28' E 139°40'510.3
2017-Jun-18 03:30N 35°31' E 139°46'0 0.2
2017-Jun-18 03:01N 35°31' E 139°46'4 7.6
2017-Jun-18 02:30N 35°29' E 139°42'2 3.5
2017-Jun-18 02:01N 35°28' E 139°44'3 6.8
2017-Jun-18 01:31N 35°27' E 139°40'0 0.4
2017-Jun-18 01:00N 35°27' E 139°40'0 0.0
2017-Jun-18 00:30N 35°27' E 139°40'0 0.0
2017-Jun-18 00:00N 35°27' E 139°40'0 0.0
2017-Jun-17 23:30N 35°27' E 139°40'0 0.0
2017-Jun-17 23:00N 35°27' E 139°40'0 0.0
2017-Jun-17 22:30N 35°27' E 139°40'0 0.0
2017-Jun-17 22:00N 35°27' E 139°40'0 0.0
2017-Jun-17 21:30N 35°27' E 139°40'0 0.0
2017-Jun-17 21:00N 35°27' E 139°40'0 0.0
2017-Jun-17 20:30N 35°27' E 139°40'0 0.0
2017-Jun-17 20:00N 35°27' E 139°40'0 0.0
2017-Jun-17 19:30N 35°27' E 139°40'0 0.0
2017-Jun-17 19:00N 35°27' E 139°40'0 0.0
2017-Jun-17 18:31N 35°27' E 139°40'0 0.0
2017-Jun-17 18:00N 35°27' E 139°40'0 0.0
2017-Jun-17 17:30N 35°27' E 139°40'0 0.0
2017-Jun-17 17:00N 35°27' E 139°40'0 0.0
2017-Jun-17 16:30N 35°27' E 139°40'0 0.0
2017-Jun-17 16:00N 35°27' E 139°40'0 0.0
2017-Jun-17 15:31N 35°27' E 139°40'0 0.0
2017-Jun-17 15:00N 35°27' E 139°40'0 0.0
2017-Jun-17 14:30N 35°27' E 139°40'0 0.0
2017-Jun-17 13:30N 35°27' E 139°40'0 0.0
2017-Jun-17 13:00N 35°27' E 139°40'0 0.0
2017-Jun-17 12:30N 35°27' E 139°40'0 0.0
2017-Jun-17 12:00N 35°27' E 139°40'0 0.0
2017-Jun-17 11:30N 35°27' E 139°40'0 0.0
2017-Jun-17 11:00N 35°27' E 139°40'0 0.0
2017-Jun-17 10:31N 35°27' E 139°40'0 0.0
2017-Jun-17 10:01N 35°27' E 139°40'0 0.0
2017-Jun-17 09:30N 35°27' E 139°40'0 0.0
2017-Jun-17 09:00N 35°27' E 139°40'0 0.0
2017-Jun-17 08:30N 35°27' E 139°40'0 0.0
2017-Jun-17 08:00N 35°27' E 139°40'0 0.0
2017-Jun-17 07:31N 35°27' E 139°40'0 0.0
2017-Jun-17 07:00N 35°27' E 139°40'0 0.0
2017-Jun-17 06:30N 35°27' E 139°40'0 0.0
2017-Jun-17 06:00N 35°27' E 139°40'0 0.0
2017-Jun-17 05:30N 35°27' E 139°40'0 0.0
2017-Jun-17 05:00N 35°27' E 139°40'0 0.0
2017-Jun-17 04:30N 35°27' E 139°40'0 0.0
2017-Jun-17 04:00N 35°27' E 139°40'0 0.0
2017-Jun-17 03:30N 35°27' E 139°40'0 0.0
2017-Jun-17 03:00N 35°27' E 139°40'0 0.0
2017-Jun-17 02:30N 35°27' E 139°40'0 0.0
2017-Jun-17 02:01N 35°27' E 139°40'0 0.0
2017-Jun-17 01:30N 35°27' E 139°40'0 0.0
2017-Jun-17 01:00N 35°27' E 139°40'0 0.0
2017-Jun-17 00:30N 35°27' E 139°40'0 0.0
2017-Jun-17 00:00N 35°27' E 139°40'0 0.0
2017-Jun-16 23:30N 35°27' E 139°40'0 0.0
2017-Jun-16 23:00N 35°27' E 139°40'0 0.0
2017-Jun-16 22:31N 35°27' E 139°40'0 0.0
2017-Jun-16 22:01N 35°27' E 139°40'0 0.0
2017-Jun-16 21:31N 35°27' E 139°40'0 0.0
2017-Jun-16 21:00N 35°27' E 139°40'0 0.0
2017-Jun-16 20:30N 35°27' E 139°40'0 0.0
2017-Jun-16 20:01N 35°27' E 139°40'0 0.0
2017-Jun-16 19:30N 35°27' E 139°40'0 0.0
2017-Jun-16 19:00N 35°27' E 139°40'0 0.0
2017-Jun-16 18:30N 35°27' E 139°40'0 0.0
2017-Jun-16 18:00N 35°27' E 139°40'0 0.0
2017-Jun-16 17:30N 35°27' E 139°40'0 0.0
2017-Jun-16 17:00N 35°27' E 139°40'0 0.0
2017-Jun-16 16:30N 35°27' E 139°40'0 0.0
2017-Jun-16 16:00N 35°27' E 139°40'0 0.0
2017-Jun-16 15:31N 35°27' E 139°40'0 0.0
2017-Jun-16 15:00N 35°27' E 139°40'0 0.0
2017-Jun-16 14:30N 35°27' E 139°40'0 0.0
2017-Jun-16 13:30N 35°27' E 139°40'0 0.0
2017-Jun-16 13:00N 35°27' E 139°40'0 0.0
2017-Jun-16 12:30N 35°27' E 139°40'0 0.0
2017-Jun-16 12:00N 35°27' E 139°40'0 0.0
2017-Jun-16 11:30N 35°27' E 139°40'0 0.0
2017-Jun-16 11:00N 35°27' E 139°40'0 0.0
2017-Jun-16 10:30N 35°27' E 139°40'0 0.0
2017-Jun-16 10:00N 35°27' E 139°40'0 0.0
2017-Jun-16 09:30N 35°27' E 139°40'0 0.0
2017-Jun-16 09:00N 35°27' E 139°40'0 0.0
2017-Jun-16 08:30N 35°27' E 139°40'0 0.0
2017-Jun-16 08:00N 35°27' E 139°40'0 0.0
2017-Jun-16 07:30N 35°27' E 139°40'0 0.0
2017-Jun-16 07:00N 35°27' E 139°40'0 0.0
2017-Jun-16 06:30N 35°27' E 139°40'0 0.0
2017-Jun-16 06:00N 35°27' E 139°40'0 0.0
2017-Jun-16 05:30N 35°27' E 139°40'0 0.0
2017-Jun-16 05:01N 35°27' E 139°40'0 0.0
2017-Jun-16 04:30N 35°27' E 139°40'0 0.0
2017-Jun-16 04:00N 35°27' E 139°40'0 0.0
2017-Jun-16 03:30N 35°27' E 139°40'0 0.0
2017-Jun-16 03:00N 35°27' E 139°40'0 0.0
2017-Jun-16 02:30N 35°27' E 139°40'0 0.0
2017-Jun-16 02:01N 35°27' E 139°40'0 0.0
2017-Jun-16 01:30N 35°27' E 139°40'0 0.8
2017-Jun-16 01:00N 35°27' E 139°40'3 5.4
2017-Jun-16 00:30N 35°28' E 139°43'0 0.5
2017-Jun-16 00:00N 35°27' E 139°43'1 1.8
2017-Jun-15 23:31N 35°27' E 139°42'0 0.0
2017-Jun-15 23:01N 35°27' E 139°42'0 0.0
2017-Jun-15 22:30N 35°27' E 139°42'3 5.3
2017-Jun-15 22:00N 35°27' E 139°39'2 3.0
2017-Jun-15 21:30N 35°29' E 139°39'3 6.4
2017-Jun-15 21:00N 35°26' E 139°42'1 2.5
2017-Jun-15 20:30N 35°27' E 139°42'0 0.0
2017-Jun-15 20:00N 35°27' E 139°42'0 0.0
2017-Jun-15 19:30N 35°27' E 139°42'0 0.0
2017-Jun-15 19:00N 35°27' E 139°42'0 0.0
2017-Jun-15 18:30N 35°27' E 139°42'0 0.0
2017-Jun-15 18:00N 35°27' E 139°42'0 0.0
2017-Jun-15 17:30N 35°27' E 139°42'0 0.0
2017-Jun-15 17:01N 35°27' E 139°42'0 0.0
2017-Jun-15 16:31N 35°27' E 139°42'0 0.0
2017-Jun-15 16:00N 35°27' E 139°42'0 0.0
2017-Jun-15 15:30N 35°27' E 139°42'0 0.7
2017-Jun-15 15:00N 35°28' E 139°42'2 4.0
2017-Jun-15 14:30N 35°27' E 139°40'0 0.0
2017-Jun-15 13:30N 35°27' E 139°40'0 0.0
2017-Jun-15 13:00N 35°27' E 139°40'0 0.0
2017-Jun-15 12:30N 35°27' E 139°40'0 0.0
2017-Jun-15 12:00N 35°27' E 139°40'0 0.0
2017-Jun-15 11:31N 35°27' E 139°40'0 0.0
2017-Jun-15 11:00N 35°27' E 139°40'0 0.0
2017-Jun-15 10:30N 35°27' E 139°40'0 0.0
2017-Jun-15 10:00N 35°27' E 139°40'0 0.0
2017-Jun-15 09:30N 35°27' E 139°40'0 0.0
2017-Jun-15 09:01N 35°27' E 139°40'0 0.0
2017-Jun-15 08:31N 35°27' E 139°40'2 4.0
2017-Jun-15 08:01N 35°28' E 139°42'0 1.0
2017-Jun-15 07:30N 35°28' E 139°42'1 2.0
2017-Jun-15 07:00N 35°27' E 139°44'1 1.9
2017-Jun-15 06:31N 35°28' E 139°44'1 2.7
2017-Jun-15 06:01N 35°29' E 139°45'2 3.2
2017-Jun-15 05:30N 35°28' E 139°44'1 1.9
2017-Jun-15 05:00N 35°28' E 139°45'2 4.1
2017-Jun-15 04:31N 35°30' E 139°45'2 4.2
2017-Jun-15 04:00N 35°29' E 139°43'2 3.8
2017-Jun-15 03:30N 35°28' E 139°42'2 3.7
2017-Jun-15 03:01N 35°26' E 139°42'0 0.0
2017-Jun-15 02:31N 35°26' E 139°42'0 0.0
2017-Jun-15 02:01N 35°26' E 139°42'0 0.0
2017-Jun-15 01:30N 35°26' E 139°42'0 0.0
2017-Jun-15 01:01N 35°26' E 139°42'0 0.0
2017-Jun-15 00:31N 35°26' E 139°42'0 0.0
2017-Jun-15 00:00N 35°26' E 139°42'0 0.0
2017-Jun-14 23:30N 35°26' E 139°42'0 0.0
2017-Jun-14 23:00N 35°26' E 139°42'0 0.0
2017-Jun-14 22:30N 35°26' E 139°42'0 0.1
2017-Jun-14 22:00N 35°26' E 139°42'1 1.0
2017-Jun-14 21:30N 35°26' E 139°41'2 3.6
2017-Jun-14 21:00N 35°27' E 139°40'0 0.0
2017-Jun-14 20:31N 35°27' E 139°40'0 0.0
2017-Jun-14 20:00N 35°27' E 139°40'0 0.0
2017-Jun-14 19:30N 35°27' E 139°40'0 0.0
2017-Jun-14 19:00N 35°27' E 139°40'0 0.0
2017-Jun-14 18:31N 35°27' E 139°40'0 0.0
2017-Jun-14 18:00N 35°27' E 139°40'0 0.0
2017-Jun-14 17:31N 35°27' E 139°40'0 0.0
2017-Jun-14 17:00N 35°27' E 139°40'0 0.0
2017-Jun-14 16:30N 35°27' E 139°40'0 0.0
2017-Jun-14 16:00N 35°27' E 139°40'0 0.0
2017-Jun-14 15:30N 35°27' E 139°40'0 0.0
2017-Jun-14 15:00N 35°27' E 139°40'0 0.0
2017-Jun-14 14:00N 35°27' E 139°40'0 0.0
2017-Jun-14 13:30N 35°27' E 139°40'0 0.0
2017-Jun-14 13:00N 35°27' E 139°40'0 0.0
2017-Jun-14 12:30N 35°27' E 139°40'0 0.0
2017-Jun-14 12:00N 35°27' E 139°40'0 0.0
2017-Jun-14 11:30N 35°27' E 139°40'0 0.0
2017-Jun-14 11:00N 35°27' E 139°40'0 0.0
2017-Jun-14 10:30N 35°27' E 139°40'0 0.0
2017-Jun-14 10:01N 35°27' E 139°40'1 1.2
2017-Jun-14 09:31N 35°27' E 139°39'2 4.7
2017-Jun-14 09:01N 35°25' E 139°41'0 0.3
2017-Jun-14 08:30N 35°25' E 139°41'1 2.4
2017-Jun-14 08:00N 35°25' E 139°42'0 0.5
2017-Jun-14 07:30N 35°25' E 139°42'1 2.2
2017-Jun-14 07:00N 35°26' E 139°42'0 0.0
2017-Jun-14 06:30N 35°26' E 139°42'0 0.0
2017-Jun-14 06:00N 35°26' E 139°42'0 0.0
2017-Jun-14 05:30N 35°26' E 139°42'0 0.0
2017-Jun-14 05:01N 35°26' E 139°42'0 0.0
2017-Jun-14 04:30N 35°26' E 139°42'0 0.0
2017-Jun-14 04:00N 35°26' E 139°42'0 0.0
2017-Jun-14 03:31N 35°26' E 139°42'0 0.1
2017-Jun-14 03:01N 35°26' E 139°42'0 0.0
2017-Jun-14 02:30N 35°26' E 139°42'0 0.0
2017-Jun-14 02:00N 35°26' E 139°42'0 0.0
2017-Jun-14 01:30N 35°26' E 139°42'0 0.0
2017-Jun-14 01:00N 35°26' E 139°42'0 0.0
2017-Jun-14 00:30N 35°26' E 139°42'0 0.0
2017-Jun-14 00:00N 35°26' E 139°42'0 0.0
2017-Jun-13 23:31N 35°26' E 139°42'  

Dump ship's entire track history